createdAt,value
2022-10-26T00:00:08.649Z,46.30
2022-10-26T00:02:44.242Z,46.40
2022-10-26T00:05:14.204Z,46.20
2022-10-26T00:07:44.229Z,46.20
2022-10-26T00:10:14.259Z,45.80
2022-10-26T00:12:44.261Z,45.80
2022-10-26T00:15:14.183Z,45.50
2022-10-26T00:17:44.123Z,45.30
2022-10-26T00:20:14.565Z,46.40
2022-10-26T00:22:45.075Z,44.30
2022-10-26T00:25:15.024Z,45.40
2022-10-26T00:27:44.926Z,45.90
2022-10-26T00:30:15.111Z,45.10
2022-10-26T00:32:45.664Z,44.70
2022-10-26T00:35:23.007Z,45.70
2022-10-26T00:37:57.895Z,45.90
2022-10-26T00:40:32.098Z,45.80
2022-10-26T00:43:05.707Z,45.90
2022-10-26T00:45:35.708Z,45.20
2022-10-26T00:48:08.597Z,45.60
2022-10-26T00:50:43.400Z,45.10
2022-10-26T00:53:13.805Z,46.20
2022-10-26T00:55:46.399Z,45.90
2022-10-26T00:58:16.536Z,48.80
2022-10-26T01:00:46.842Z,49.70
2022-10-26T01:03:16.900Z,49.90
2022-10-26T01:05:47.553Z,50.30
2022-10-26T01:08:18.332Z,50.50
2022-10-26T01:10:48.301Z,51.90
2022-10-26T01:13:18.299Z,50.60
2022-10-26T01:16:25.458Z,51.50
2022-10-26T01:19:39.106Z,51.60
2022-10-26T01:22:15.180Z,51.10
2022-10-26T01:25:04.715Z,51.60
2022-10-26T01:27:41.108Z,51.90
2022-10-26T01:30:14.196Z,51.70
2022-10-26T01:33:07.357Z,52.10
2022-10-26T01:36:02.697Z,50.40
2022-10-26T01:38:37.706Z,51.60
2022-10-26T01:41:35.394Z,51.00
2022-10-26T01:44:10.930Z,50.70
2022-10-26T01:46:42.864Z,51.10
2022-10-26T01:49:13.937Z,50.80
2022-10-26T01:51:45.271Z,49.80
2022-10-26T01:54:19.683Z,50.80
2022-10-26T01:56:59.253Z,50.80
2022-10-26T01:59:52.430Z,50.60
2022-10-26T02:02:34.484Z,51.20
2022-10-26T02:05:35.925Z,50.80
2022-10-26T02:08:36.673Z,51.70
2022-10-26T02:11:24.846Z,49.60
2022-10-26T02:14:39.408Z,49.90
2022-10-26T02:17:30.896Z,49.80
2022-10-26T02:20:06.632Z,51.20
2022-10-26T02:22:49.067Z,50.30
2022-10-26T02:25:29.120Z,50.30
2022-10-26T02:28:07.330Z,49.70
2022-10-26T02:30:38.380Z,50.90
2022-10-26T02:33:08.449Z,50.00
2022-10-26T02:35:39.357Z,48.60
2022-10-26T02:38:13.011Z,49.70
2022-10-26T02:40:43.960Z,51.20
2022-10-26T02:43:15.347Z,51.60
2022-10-26T02:46:07.383Z,50.70
2022-10-26T02:48:37.312Z,50.90
2022-10-26T02:51:14.294Z,49.70
2022-10-26T02:53:55.983Z,49.60
2022-10-26T02:56:43.797Z,50.30
2022-10-26T02:59:14.126Z,50.30
2022-10-26T03:01:44.244Z,49.30
2022-10-26T03:04:14.248Z,51.70
2022-10-26T03:06:44.335Z,49.90
2022-10-26T03:09:14.293Z,49.90
2022-10-26T03:11:45.447Z,48.90
2022-10-26T03:14:15.541Z,49.70
2022-10-26T03:16:45.578Z,48.60
2022-10-26T03:19:15.464Z,48.30
2022-10-26T03:21:45.418Z,48.50
2022-10-26T03:24:15.358Z,48.00
2022-10-26T03:26:45.250Z,48.20
2022-10-26T03:29:15.182Z,48.60
2022-10-26T03:31:45.233Z,47.70
2022-10-26T03:34:15.251Z,47.40
2022-10-26T03:36:45.163Z,48.70
2022-10-26T03:39:15.229Z,47.30
2022-10-26T03:41:45.605Z,47.20
2022-10-26T03:44:15.752Z,47.00
2022-10-26T03:46:45.726Z,49.30
2022-10-26T03:49:15.719Z,47.70
2022-10-26T03:51:46.035Z,48.50
2022-10-26T03:54:16.004Z,46.80
2022-10-26T03:56:46.042Z,47.50
2022-10-26T03:59:16.077Z,47.10
2022-10-26T04:01:46.210Z,46.20
2022-10-26T04:04:16.251Z,46.80
2022-10-26T04:09:21.072Z,47.70
2022-10-26T04:11:51.131Z,45.00
2022-10-26T04:14:21.167Z,45.80
2022-10-26T04:16:51.145Z,47.50
2022-10-26T04:19:21.131Z,48.00
2022-10-26T04:21:53.497Z,46.60
2022-10-26T04:24:23.713Z,48.10
2022-10-26T04:26:53.611Z,47.30
2022-10-26T04:29:23.587Z,48.30
2022-10-26T04:31:54.058Z,47.90
2022-10-26T04:34:24.276Z,48.60
2022-10-26T04:36:54.403Z,49.30
2022-10-26T04:39:24.331Z,48.70
2022-10-26T04:41:56.459Z,47.80
2022-10-26T04:44:26.670Z,49.90
2022-10-26T04:46:56.598Z,49.20
2022-10-26T04:49:26.468Z,48.70
2022-10-26T04:51:57.013Z,49.60
2022-10-26T04:54:26.999Z,48.30
2022-10-26T04:56:56.974Z,49.90
2022-10-26T04:59:26.987Z,49.50
2022-10-26T05:01:57.546Z,48.00
2022-10-26T05:04:27.590Z,48.60
2022-10-26T05:06:57.538Z,49.30
2022-10-26T05:09:27.421Z,50.50
2022-10-26T05:11:57.364Z,47.30
2022-10-26T05:14:27.272Z,49.10
2022-10-26T05:16:57.458Z,50.10
2022-10-26T05:19:27.376Z,48.40
2022-10-26T05:21:57.294Z,48.70
2022-10-26T05:24:27.261Z,48.30
2022-10-26T05:26:57.194Z,48.90
2022-10-26T05:29:27.126Z,50.20
2022-10-26T05:31:57.147Z,48.10
2022-10-26T05:34:27.104Z,46.90
2022-10-26T05:36:57.044Z,49.40
2022-10-26T05:39:26.945Z,49.30
2022-10-26T05:41:56.859Z,49.60
2022-10-26T05:44:26.959Z,49.60
2022-10-26T05:46:56.968Z,48.90
2022-10-26T05:49:26.835Z,49.80
2022-10-26T05:51:56.849Z,49.70
2022-10-26T05:54:26.882Z,47.80
2022-10-26T05:56:57.158Z,48.90
2022-10-26T05:59:27.678Z,48.20
2022-10-26T06:02:02.943Z,47.40
2022-10-26T06:04:44.526Z,48.30
2022-10-26T06:07:16.589Z,47.80
2022-10-26T06:09:47.443Z,49.10
2022-10-26T06:12:19.641Z,46.90
2022-10-26T06:14:50.649Z,49.10
2022-10-26T06:17:39.292Z,47.10
2022-10-26T06:20:35.936Z,46.80
2022-10-26T06:23:30.162Z,46.80
2022-10-26T06:26:17.424Z,45.30
2022-10-26T06:29:06.064Z,46.50
2022-10-26T06:31:36.007Z,47.30
2022-10-26T06:34:05.981Z,45.50
2022-10-26T06:36:36.156Z,46.10
2022-10-26T06:39:11.161Z,46.90
2022-10-26T06:41:41.403Z,46.80
2022-10-26T06:44:20.724Z,47.40
2022-10-26T06:47:12.298Z,46.50
2022-10-26T06:50:01.882Z,46.50
2022-10-26T06:52:45.824Z,46.70
2022-10-26T06:55:16.658Z,45.80
2022-10-26T06:57:46.995Z,45.50
2022-10-26T07:00:22.468Z,45.30
2022-10-26T07:02:52.928Z,45.70
2022-10-26T07:05:23.817Z,46.20
2022-10-26T07:07:53.932Z,46.30
2022-10-26T07:10:24.429Z,46.00
2022-10-26T07:12:54.398Z,45.40
2022-10-26T07:15:24.398Z,45.30
2022-10-26T07:17:54.333Z,45.40
2022-10-26T07:20:24.414Z,45.00
2022-10-26T07:22:57.871Z,45.30
2022-10-26T07:25:28.785Z,47.20
2022-10-26T07:28:01.999Z,46.60
2022-10-26T07:30:32.305Z,45.70
2022-10-26T07:33:03.736Z,45.30
2022-10-26T07:35:35.439Z,45.00
2022-10-26T07:38:05.750Z,45.40
2022-10-26T07:40:36.377Z,46.60
2022-10-26T07:43:06.714Z,45.80
2022-10-26T07:45:38.050Z,46.70
2022-10-26T07:48:08.370Z,45.50
2022-10-26T07:50:38.638Z,44.50
2022-10-26T07:53:08.833Z,45.70
2022-10-26T07:55:38.902Z,46.00
2022-10-26T07:58:08.818Z,45.90
2022-10-26T08:00:38.781Z,46.20
2022-10-26T08:03:08.766Z,45.90
2022-10-26T08:05:38.703Z,45.00
2022-10-26T08:08:08.936Z,45.00
2022-10-26T08:10:38.860Z,45.50
2022-10-26T08:13:11.502Z,45.60
2022-10-26T08:15:42.152Z,44.30
2022-10-26T08:18:12.128Z,44.50
2022-10-26T08:20:42.048Z,44.00
2022-10-26T08:23:11.991Z,43.80
2022-10-26T08:25:41.944Z,44.90
2022-10-26T08:28:15.465Z,43.90
2022-10-26T08:30:45.703Z,43.80
2022-10-26T08:33:44.999Z,44.10
2022-10-26T08:36:21.247Z,43.80
2022-10-26T08:38:51.269Z,43.70
2022-10-26T08:41:24.899Z,43.70
2022-10-26T08:44:00.313Z,43.30
2022-10-26T08:46:34.045Z,43.10
2022-10-26T08:49:28.174Z,42.30
2022-10-26T08:52:02.059Z,43.40
2022-10-26T08:54:52.089Z,43.70
2022-10-26T08:57:29.497Z,44.40
2022-10-26T09:00:07.721Z,44.10
2022-10-26T09:02:39.144Z,42.90
2022-10-26T09:05:18.957Z,43.60
2022-10-26T09:07:57.221Z,43.70
2022-10-26T09:10:44.512Z,43.00
2022-10-26T09:13:35.868Z,42.90
2022-10-26T09:16:35.325Z,42.20
2022-10-26T09:19:23.436Z,43.20
2022-10-26T09:22:47.159Z,41.90
2022-10-26T09:25:23.635Z,42.80
2022-10-26T09:27:58.083Z,42.40
2022-10-26T09:30:28.002Z,42.20
2022-10-26T09:33:19.651Z,42.90
2022-10-26T09:35:58.780Z,42.90
2022-10-26T09:39:02.995Z,42.00
2022-10-26T09:41:42.631Z,41.90
2022-10-26T09:44:32.613Z,42.50
2022-10-26T09:47:08.287Z,42.60
2022-10-26T09:49:45.659Z,42.00
2022-10-26T09:52:16.441Z,43.20
2022-10-26T09:54:46.417Z,41.90
2022-10-26T09:57:17.584Z,41.70
2022-10-26T09:59:49.015Z,42.40
2022-10-26T10:02:44.911Z,42.10
2022-10-26T10:08:24.105Z,46.00
2022-10-26T10:10:58.157Z,46.70
2022-10-26T10:13:36.727Z,48.40
2022-10-26T10:16:15.138Z,45.80
2022-10-26T10:18:46.383Z,45.40
2022-10-26T10:21:16.489Z,45.20
2022-10-26T10:23:56.476Z,45.30
2022-10-26T10:26:51.285Z,45.30
2022-10-26T10:29:21.625Z,43.90
2022-10-26T10:31:59.557Z,44.20
2022-10-26T10:34:39.781Z,45.30
2022-10-26T10:37:21.447Z,44.60
2022-10-26T10:39:51.974Z,45.00
2022-10-26T10:42:28.412Z,46.00
2022-10-26T10:44:59.105Z,45.60
2022-10-26T10:47:34.495Z,45.40
2022-10-26T10:50:07.254Z,45.40
2022-10-26T10:52:37.588Z,45.80
2022-10-26T10:55:16.489Z,44.00
2022-10-26T10:58:23.092Z,47.10
2022-10-26T11:00:53.262Z,44.90
2022-10-26T11:03:41.472Z,47.00
2022-10-26T11:06:14.402Z,45.40
2022-10-26T11:08:55.483Z,46.50
2022-10-26T11:11:35.894Z,45.60
2022-10-26T11:14:46.386Z,47.40
2022-10-26T11:17:29.785Z,45.50
2022-10-26T11:20:04.166Z,48.70
2022-10-26T11:22:41.215Z,47.00
2022-10-26T11:25:35.357Z,45.90
2022-10-26T11:28:14.886Z,44.70
2022-10-26T11:30:48.701Z,45.30
2022-10-26T11:33:23.553Z,46.20
2022-10-26T11:41:03.084Z,44.90
2022-10-26T11:43:47.145Z,44.90
2022-10-26T11:56:53.464Z,47.40
2022-10-26T11:59:27.971Z,46.20
2022-10-26T12:02:17.880Z,46.80
2022-10-26T12:04:50.314Z,48.50
2022-10-26T12:07:28.140Z,48.50
2022-10-26T12:09:58.275Z,49.20
2022-10-26T12:12:57.825Z,47.40
2022-10-26T12:15:40.362Z,47.60
2022-10-26T12:18:54.487Z,47.60
2022-10-26T12:21:30.223Z,46.50
2022-10-26T12:24:17.860Z,47.20
2022-10-26T12:26:54.716Z,47.00
2022-10-26T12:29:47.978Z,49.30
2022-10-26T12:32:39.123Z,48.30
2022-10-26T12:35:36.230Z,47.30
2022-10-26T12:38:35.427Z,46.50
2022-10-26T12:41:08.636Z,47.50
2022-10-26T12:43:40.262Z,48.20
2022-10-26T12:46:16.408Z,48.10
2022-10-26T12:48:47.424Z,48.50
2022-10-26T12:51:40.223Z,46.80
2022-10-26T12:54:28.114Z,48.30
2022-10-26T12:56:59.050Z,48.00
2022-10-26T12:59:31.956Z,49.60
2022-10-26T13:02:10.741Z,48.40
2022-10-26T13:04:43.630Z,49.80
2022-10-26T13:07:19.624Z,49.00
2022-10-26T13:10:12.127Z,49.70
2022-10-26T13:12:56.198Z,47.10
2022-10-26T13:16:01.562Z,48.30
2022-10-26T13:18:31.545Z,49.20
2022-10-26T13:21:15.975Z,48.90
2022-10-26T13:23:50.170Z,48.10
2022-10-26T13:26:22.032Z,47.90
2022-10-26T13:28:55.765Z,49.40
2022-10-26T13:31:32.449Z,48.70
2022-10-26T13:34:22.006Z,49.30
2022-10-26T13:37:30.826Z,47.50
2022-10-26T13:40:03.070Z,51.00
2022-10-26T13:42:40.685Z,48.00
2022-10-26T13:45:13.547Z,50.60
2022-10-26T13:48:17.711Z,48.90
2022-10-26T13:50:54.196Z,50.80
2022-10-26T13:53:42.360Z,50.00
2022-10-26T13:56:18.105Z,49.20
2022-10-26T13:59:12.079Z,49.00
2022-10-26T14:01:42.232Z,49.30
2022-10-26T14:04:19.788Z,50.00
2022-10-26T14:06:53.277Z,50.60
2022-10-26T14:09:25.848Z,50.70
2022-10-26T14:11:59.386Z,49.50
2022-10-26T14:14:31.722Z,49.90
2022-10-26T14:17:01.747Z,50.20
2022-10-26T14:19:37.137Z,49.80
2022-10-26T14:22:07.245Z,50.40
2022-10-26T14:24:49.240Z,49.60
2022-10-26T14:27:20.188Z,49.60
2022-10-26T14:30:16.853Z,49.40
2022-10-26T14:32:41.246Z,50.00
2022-10-26T14:35:15.397Z,50.00
2022-10-26T14:37:59.315Z,51.40
2022-10-26T14:40:31.086Z,51.00
2022-10-26T14:43:01.950Z,50.70
2022-10-26T14:45:54.369Z,50.90
2022-10-26T14:48:31.693Z,49.70
2022-10-26T14:51:20.160Z,51.40
2022-10-26T14:53:54.538Z,52.00
2022-10-26T14:56:29.910Z,51.60
2022-10-26T14:59:00.062Z,51.40
2022-10-26T15:01:34.609Z,49.80
2022-10-26T15:04:07.567Z,51.60
2022-10-26T15:06:45.048Z,50.80
2022-10-26T15:09:35.231Z,52.40
2022-10-26T15:12:06.830Z,50.00
2022-10-26T15:14:37.746Z,51.20
2022-10-26T15:17:08.572Z,51.40
2022-10-26T15:19:39.232Z,50.40
2022-10-26T15:22:30.945Z,51.50
2022-10-26T15:25:04.414Z,51.90
2022-10-26T15:27:34.206Z,51.20
2022-10-26T15:30:30.313Z,51.90
2022-10-26T15:33:00.264Z,51.50
2022-10-26T15:35:34.295Z,51.50
2022-10-26T15:38:04.220Z,53.20
2022-10-26T15:40:34.139Z,51.60
2022-10-26T15:43:07.223Z,51.70
2022-10-26T15:45:36.946Z,51.30
2022-10-26T15:48:30.051Z,51.30
2022-10-26T15:51:00.279Z,52.50
2022-10-26T15:53:30.279Z,51.00
2022-10-26T15:56:00.886Z,51.40
2022-10-26T15:58:31.372Z,51.40
2022-10-26T16:01:01.723Z,51.60
2022-10-26T16:03:32.138Z,52.30
2022-10-26T16:06:02.988Z,51.80
2022-10-26T16:08:33.141Z,51.00
2022-10-26T16:11:03.122Z,50.60
2022-10-26T16:13:33.033Z,53.00
2022-10-26T16:16:03.155Z,51.70
2022-10-26T16:18:33.139Z,50.80
2022-10-26T16:21:05.560Z,52.00
2022-10-26T16:23:35.593Z,52.60
2022-10-26T16:26:06.289Z,51.50
2022-10-26T16:28:38.186Z,51.30
2022-10-26T16:31:10.354Z,52.20
2022-10-26T16:33:41.218Z,51.60
2022-10-26T16:36:12.928Z,53.20
2022-10-26T16:38:44.111Z,51.80
2022-10-26T16:41:18.515Z,53.10
2022-10-26T16:43:48.373Z,51.70
2022-10-26T16:46:21.256Z,53.00
2022-10-26T16:48:52.068Z,52.80
2022-10-26T16:51:28.010Z,52.40
2022-10-26T16:53:58.782Z,52.00
2022-10-26T16:56:30.280Z,53.10
2022-10-26T16:59:00.474Z,52.20
2022-10-26T17:01:30.680Z,53.30
2022-10-26T17:06:37.159Z,52.60
2022-10-26T17:09:07.488Z,52.40
2022-10-26T17:11:37.809Z,52.30
2022-10-26T17:14:08.755Z,51.80
2022-10-26T17:16:38.775Z,52.40
2022-10-26T17:19:10.215Z,52.00
2022-10-26T17:21:40.904Z,53.00
2022-10-26T17:24:11.206Z,53.50
2022-10-26T17:26:41.800Z,53.10
2022-10-26T17:29:13.830Z,52.60
2022-10-26T17:31:44.542Z,53.30
2022-10-26T17:34:14.898Z,54.10
2022-10-26T17:36:45.237Z,53.60
2022-10-26T17:39:15.419Z,52.40
2022-10-26T17:41:46.541Z,53.60
2022-10-26T17:44:16.615Z,53.60
2022-10-26T17:46:46.873Z,52.20
2022-10-26T17:49:17.960Z,54.70
2022-10-26T17:51:48.602Z,53.50
2022-10-26T17:54:18.688Z,53.70
2022-10-26T17:56:48.632Z,53.80
2022-10-26T17:59:20.289Z,53.30
2022-10-26T18:01:51.028Z,53.90
2022-10-26T18:04:23.249Z,53.80
2022-10-26T18:06:53.641Z,52.70
2022-10-26T18:09:24.417Z,53.10
2022-10-26T18:11:56.000Z,53.50
2022-10-26T18:14:26.400Z,52.60
2022-10-26T18:16:56.417Z,54.10
2022-10-26T18:19:27.591Z,54.70
2022-10-26T18:21:58.176Z,52.60
2022-10-26T18:24:28.458Z,53.30
2022-10-26T18:26:59.379Z,53.20
2022-10-26T18:29:29.748Z,53.90
2022-10-26T18:32:00.048Z,53.40
2022-10-26T18:34:30.170Z,52.90
2022-10-26T18:37:00.271Z,54.00
2022-10-26T18:39:30.202Z,53.40
2022-10-26T18:42:00.210Z,54.40
2022-10-26T18:44:30.253Z,53.80
2022-10-26T18:47:00.204Z,55.10
2022-10-26T18:49:30.438Z,54.40
2022-10-26T18:52:01.078Z,53.10
2022-10-26T18:54:31.865Z,54.80
2022-10-26T18:57:02.133Z,52.90
2022-10-26T18:59:32.382Z,53.30
2022-10-26T19:02:03.043Z,52.50
2022-10-26T19:04:33.306Z,53.80
2022-10-26T19:07:03.279Z,55.00
2022-10-26T19:09:33.249Z,54.30
2022-10-26T19:12:03.957Z,54.60
2022-10-26T19:14:34.223Z,54.20
2022-10-26T19:17:05.023Z,53.30
2022-10-26T19:19:35.264Z,53.40
2022-10-26T19:22:05.620Z,53.80
2022-10-26T19:24:35.539Z,53.80
2022-10-26T19:27:05.650Z,53.20
2022-10-26T19:29:35.653Z,53.80
2022-10-26T19:32:05.768Z,55.50
2022-10-26T19:34:35.708Z,55.10
2022-10-26T19:37:07.722Z,53.30
2022-10-26T19:39:37.913Z,54.90
2022-10-26T19:42:08.439Z,54.30
2022-10-26T19:44:38.424Z,54.70
2022-10-26T19:47:08.706Z,54.00
2022-10-26T19:49:38.742Z,53.50
2022-10-26T19:52:08.679Z,55.40
2022-10-26T19:54:38.648Z,53.60
2022-10-26T19:57:08.800Z,53.80
2022-10-26T19:59:38.841Z,55.70
2022-10-26T20:02:08.716Z,56.10
2022-10-26T20:04:38.661Z,54.80
2022-10-26T20:07:08.576Z,54.20
2022-10-26T20:09:38.582Z,53.70
2022-10-26T20:12:08.921Z,54.40
2022-10-26T20:14:39.072Z,53.90
2022-10-26T20:17:09.203Z,53.60
2022-10-26T20:19:39.129Z,54.50
2022-10-26T20:22:09.151Z,55.30
2022-10-26T20:24:39.074Z,54.00
2022-10-26T20:27:09.015Z,55.90
2022-10-26T20:29:38.986Z,53.80
2022-10-26T20:32:08.977Z,54.30
2022-10-26T20:34:41.335Z,56.30
2022-10-26T20:37:14.564Z,54.70
2022-10-26T20:39:44.839Z,54.00
2022-10-26T20:42:28.896Z,54.10
2022-10-26T20:45:02.858Z,54.30
2022-10-26T20:47:33.551Z,55.70
2022-10-26T20:50:05.037Z,53.70
2022-10-26T20:52:40.765Z,54.60
2022-10-26T20:55:48.773Z,55.70
2022-10-26T20:58:34.145Z,54.90
2022-10-26T21:01:06.283Z,55.00
2022-10-26T21:03:36.356Z,53.50
2022-10-26T21:06:06.368Z,54.40
2022-10-26T21:08:36.343Z,54.00
2022-10-26T21:11:06.772Z,54.00
2022-10-26T21:13:37.024Z,55.30
2022-10-26T21:16:08.056Z,55.60
2022-10-26T21:18:38.410Z,54.60
2022-10-26T21:21:09.317Z,55.10
2022-10-26T21:23:40.798Z,56.40
2022-10-26T21:26:11.076Z,53.70
2022-10-26T21:28:48.231Z,53.80
2022-10-26T21:31:19.468Z,54.60
2022-10-26T21:33:49.706Z,53.40
2022-10-26T21:36:20.005Z,54.30
2022-10-26T21:38:50.193Z,54.80
2022-10-26T21:41:21.431Z,54.70
2022-10-26T21:44:03.192Z,54.60
2022-10-26T21:46:40.527Z,54.90
2022-10-26T21:49:10.484Z,54.20
2022-10-26T21:51:41.221Z,55.30
2022-10-26T21:54:11.552Z,54.00
2022-10-26T21:56:42.250Z,55.30
2022-10-26T21:59:12.211Z,54.70
2022-10-26T22:01:42.814Z,55.30
2022-10-26T22:04:13.131Z,55.00
2022-10-26T22:06:43.809Z,56.10
2022-10-26T22:09:14.443Z,54.50
2022-10-26T22:11:44.978Z,54.40
2022-10-26T22:14:15.505Z,54.80
2022-10-26T22:16:46.273Z,54.00
2022-10-26T22:19:16.342Z,56.00
2022-10-26T22:21:46.951Z,56.00
2022-10-26T22:24:17.066Z,54.40
2022-10-26T22:26:47.132Z,54.50
2022-10-26T22:29:17.180Z,54.20
2022-10-26T22:31:47.623Z,54.60
2022-10-26T22:34:17.947Z,55.50
2022-10-26T22:36:48.109Z,54.10
2022-10-26T22:39:19.135Z,55.20
2022-10-26T22:41:50.883Z,55.80
2022-10-26T22:44:21.086Z,55.60
2022-10-26T22:46:51.081Z,55.50
2022-10-26T22:49:21.045Z,54.60
2022-10-26T22:51:51.328Z,56.20
2022-10-26T22:54:39.484Z,55.20
2022-10-26T22:57:09.700Z,55.10
2022-10-26T22:59:39.693Z,54.70
2022-10-26T23:02:10.331Z,56.50
2022-10-26T23:04:40.455Z,54.90
2022-10-26T23:07:10.390Z,55.50
2022-10-26T23:09:40.375Z,56.20
2022-10-26T23:12:10.258Z,55.30
2022-10-26T23:14:40.271Z,54.90
2022-10-26T23:17:11.166Z,54.50
2022-10-26T23:19:41.135Z,56.10
2022-10-26T23:22:11.098Z,56.30
2022-10-26T23:24:41.060Z,54.70
2022-10-26T23:27:11.148Z,56.20
2022-10-26T23:29:41.165Z,54.30
2022-10-26T23:32:11.303Z,56.10
2022-10-26T23:34:41.269Z,55.70
2022-10-26T23:37:14.731Z,55.90
2022-10-26T23:39:44.765Z,55.40
2022-10-26T23:42:14.959Z,54.20
2022-10-26T23:44:45.026Z,54.40
2022-10-26T23:47:15.380Z,54.30
2022-10-26T23:49:45.962Z,54.60
2022-10-26T23:52:16.150Z,54.40
2022-10-26T23:54:46.139Z,55.80
2022-10-26T23:57:16.151Z,57.00
2022-10-26T23:59:46.155Z,56.30
